Time;durP1;ratioP1;P1;durP2;ratioP2;P2;SDS_P1;SDS_P2;PMS_P1;PMS_P2;Temp;Humidity;BMP_temperature;BMP_pressure;BME280_temperature;BME280_humidity;BME280_pressure;Samples;Min_cycle;Max_cycle;Signal;HPM_P1;HPM_P2
2023/08/16 00:01:18;;;;;;;5.43;4.30;;;20.50;99.90;;;;;;5071693;28;20183;-69
2023/08/16 00:03:46;;;;;;;6.80;3.50;;;20.50;99.90;;;;;;5053834;28;20176;-68
2023/08/16 00:06:13;;;;;;;6.80;3.97;;;20.50;99.90;;;;;;5071840;28;20183;-68
2023/08/16 00:08:39;;;;;;;4.97;3.63;;;20.50;99.90;;;;;;5071582;28;20908;-68
2023/08/16 00:11:05;;;;;;;4.13;3.73;;;20.50;99.90;;;;;;5071523;28;20782;-68
2023/08/16 00:13:34;;;;;;;4.40;4.00;;;20.40;99.90;;;;;;5071521;28;20419;-68
2023/08/16 00:16:01;;;;;;;6.10;3.77;;;20.40;99.90;;;;;;5053353;28;20467;-68
2023/08/16 00:18:28;;;;;;;9.80;3.73;;;20.40;99.90;;;;;;5071434;28;20465;-68
2023/08/16 00:20:53;;;;;;;4.40;4.00;;;20.50;99.90;;;;;;5071421;28;20422;-68
2023/08/16 00:23:19;;;;;;;8.33;3.77;;;20.40;99.90;;;;;;5071041;28;20442;-68
2023/08/16 00:25:44;;;;;;;4.17;3.57;;;20.40;99.90;;;;;;5052792;28;20604;-69
2023/08/16 00:28:10;;;;;;;4.90;4.00;;;20.30;99.90;;;;;;5071157;28;20187;-69
2023/08/16 00:30:36;;;;;;;5.17;3.80;;;20.00;99.90;;;;;;5071113;28;20214;-68
2023/08/16 00:33:01;;;;;;;4.83;4.33;;;19.70;99.90;;;;;;5071129;28;20807;-68
2023/08/16 00:35:27;;;;;;;5.50;4.33;;;19.60;99.90;;;;;;5071011;28;20559;-68
2023/08/16 00:37:52;;;;;;;9.40;4.63;;;19.70;99.90;;;;;;5070879;28;20211;-68
2023/08/16 00:40:20;;;;;;;5.73;3.97;;;19.80;99.90;;;;;;5052894;28;20221;-68
2023/08/16 00:42:45;;;;;;;4.00;3.60;;;19.80;99.90;;;;;;5071013;28;20234;-68
2023/08/16 00:45:11;;;;;;;4.40;4.00;;;19.80;99.90;;;;;;5070536;28;20904;-68
2023/08/16 00:47:37;;;;;;;5.00;3.70;;;19.80;99.90;;;;;;5070709;28;20278;-68
2023/08/16 00:50:03;;;;;;;5.93;4.17;;;19.80;99.90;;;;;;5070762;28;20582;-68
2023/08/16 00:52:29;;;;;;;5.73;3.93;;;19.90;99.90;;;;;;5070575;28;20233;-68
2023/08/16 00:54:55;;;;;;;4.73;4.00;;;19.90;99.90;;;;;;5070603;28;21275;-68
2023/08/16 00:57:21;;;;;;;5.50;4.10;;;19.90;99.90;;;;;;5070477;28;20515;-68
2023/08/16 00:59:47;;;;;;;9.47;4.50;;;19.90;99.90;;;;;;5070495;28;20782;-68
2023/08/16 01:02:18;;;;;;;6.30;4.27;;;19.70;99.90;;;;;;5070398;28;20793;-68
2023/08/16 01:04:47;;;;;;;6.83;4.47;;;19.60;99.90;;;;;;5070859;28;20179;-68
2023/08/16 01:07:12;;;;;;;7.33;4.60;;;19.40;99.90;;;;;;5070316;28;20420;-67
2023/08/16 01:09:38;;;;;;;7.93;5.27;;;19.40;99.90;;;;;;5070587;28;20426;-68
2023/08/16 01:12:23;;;;;;;5.63;4.80;;;19.30;99.90;;;;;;5070362;28;20683;-68
2023/08/16 01:14:56;;;;;;;5.20;4.63;;;19.30;99.90;;;;;;5070304;28;20182;-67
2023/08/16 01:17:24;;;;;;;10.73;5.57;;;19.40;99.90;;;;;;5070173;28;20492;-68
2023/08/16 01:19:52;;;;;;;10.10;5.33;;;19.50;99.90;;;;;;5070116;28;20459;-68
2023/08/16 01:23:03;;;;;;;6.77;4.47;;;19.60;99.90;;;;;;5070057;28;20441;-68
2023/08/16 01:25:38;;;;;;;5.30;4.27;;;19.70;99.90;;;;;;5051790;28;20422;-68
2023/08/16 01:28:04;;;;;;;4.70;4.27;;;19.80;99.90;;;;;;5070014;28;20405;-68
2023/08/16 01:30:30;;;;;;;5.83;4.20;;;19.80;99.90;;;;;;5051621;28;20494;-69
2023/08/16 01:33:08;;;;;;;6.53;4.30;;;19.60;99.90;;;;;;5069850;28;21001;-68
2023/08/16 01:35:35;;;;;;;5.87;4.43;;;19.60;99.90;;;;;;5069836;28;20405;-68
2023/08/16 01:38:02;;;;;;;10.13;4.50;;;19.60;99.90;;;;;;5069728;28;20486;-68
2023/08/16 01:40:37;;;;;;;4.93;4.10;;;19.50;99.90;;;;;;5069784;28;20425;-68
2023/08/16 01:43:06;;;;;;;5.23;4.73;;;19.50;99.90;;;;;;5069954;28;20467;-68
2023/08/16 01:45:33;;;;;;;4.90;4.37;;;19.40;99.90;;;;;;5069667;28;20931;-68
2023/08/16 01:48:00;;;;;;;5.00;3.90;;;19.40;99.90;;;;;;5069946;28;20826;-68
2023/08/16 01:50:25;;;;;;;6.80;4.73;;;19.40;99.90;;;;;;5069572;28;20421;-69
2023/08/16 01:52:52;;;;;;;6.40;5.13;;;19.40;99.90;;;;;;5051473;28;20498;-69
2023/08/16 01:55:17;;;;;;;4.83;4.37;;;19.30;99.90;;;;;;5069661;28;20677;-68
2023/08/16 01:57:43;;;;;;;12.17;5.70;;;19.40;99.90;;;;;;5068809;28;20458;-68
2023/08/16 02:00:09;;;;;;;7.10;4.40;;;19.30;99.90;;;;;;5069602;28;20187;-68
2023/08/16 02:02:36;;;;;;;4.70;4.17;;;19.30;99.90;;;;;;5069356;28;20199;-68
2023/08/16 02:05:02;;;;;;;5.33;4.83;;;19.30;99.90;;;;;;5069646;28;20429;-68
2023/08/16 02:07:28;;;;;;;8.83;5.10;;;19.30;99.90;;;;;;5069472;28;20425;-68
2023/08/16 02:09:53;;;;;;;6.90;4.50;;;19.30;99.90;;;;;;5051099;28;20183;-68
2023/08/16 02:12:19;;;;;;;6.73;4.87;;;19.20;99.90;;;;;;5050924;28;20276;-68
2023/08/16 02:14:44;;;;;;;10.03;5.17;;;19.20;99.90;;;;;;5069285;28;20206;-68
2023/08/16 02:17:10;;;;;;;6.50;5.10;;;19.10;99.90;;;;;;5069002;28;20202;-68
2023/08/16 02:19:35;;;;;;;8.10;5.23;;;19.00;99.90;;;;;;5069155;28;20279;-68
2023/08/16 02:22:01;;;;;;;5.07;4.60;;;19.00;99.90;;;;;;5069100;28;20214;-68
2023/08/16 02:24:27;;;;;;;5.80;5.10;;;18.90;99.90;;;;;;5069121;28;20179;-68
2023/08/16 02:26:53;;;;;;;6.20;5.20;;;18.80;99.90;;;;;;5069053;28;20190;-68
2023/08/16 02:29:18;;;;;;;5.90;5.10;;;18.80;99.90;;;;;;5068942;28;20427;-68
2023/08/16 02:31:44;;;;;;;9.80;5.93;;;18.70;99.90;;;;;;5068850;28;20233;-68
2023/08/16 02:34:09;;;;;;;7.13;5.90;;;18.70;99.90;;;;;;5068924;28;20191;-68
2023/08/16 02:36:35;;;;;;;6.43;5.70;;;18.60;99.90;;;;;;5068934;28;20194;-68
2023/08/16 02:39:01;;;;;;;8.43;5.83;;;18.60;99.90;;;;;;5050991;28;20191;-68
2023/08/16 02:41:26;;;;;;;7.90;5.50;;;18.50;99.90;;;;;;5068624;28;20610;-68
2023/08/16 02:43:52;;;;;;;9.23;5.63;;;18.40;99.90;;;;;;5068792;28;20167;-68
2023/08/16 02:46:18;;;;;;;6.70;5.60;;;18.50;99.90;;;;;;5068828;28;20267;-68
2023/08/16 02:48:43;;;;;;;7.53;5.87;;;18.60;99.90;;;;;;5034148;28;20736;-68
2023/08/16 02:51:09;;;;;;;7.40;5.30;;;18.60;99.90;;;;;;5068625;28;20191;-68
2023/08/16 02:53:34;;;;;;;7.40;5.90;;;18.70;99.90;;;;;;5068852;28;20186;-68
2023/08/16 02:56:00;;;;;;;7.80;5.77;;;18.70;99.90;;;;;;5068601;28;20179;-68
2023/08/16 02:58:26;;;;;;;13.43;6.63;;;18.70;99.90;;;;;;5068593;28;20211;-68
2023/08/16 03:00:52;;;;;;;6.63;5.23;;;18.70;99.90;;;;;;5050529;28;20183;-68
2023/08/16 03:03:18;;;;;;;7.57;5.60;;;18.70;99.90;;;;;;5068482;28;20715;-68
2023/08/16 03:05:44;;;;;;;7.50;5.07;;;18.70;99.90;;;;;;5068618;28;20416;-68
2023/08/16 03:08:10;;;;;;;10.37;5.90;;;18.70;99.90;;;;;;5068594;28;20181;-68
2023/08/16 03:10:35;;;;;;;8.53;5.90;;;18.60;99.90;;;;;;5068461;28;20424;-68
2023/08/16 03:13:01;;;;;;;7.30;5.83;;;18.60;99.90;;;;;;5068377;28;20703;-68
2023/08/16 03:15:26;;;;;;;9.90;5.70;;;18.70;99.90;;;;;;5050308;28;20182;-68
2023/08/16 03:17:52;;;;;;;5.73;5.23;;;18.70;99.90;;;;;;5068314;28;20586;-68
2023/08/16 03:20:18;;;;;;;10.37;5.47;;;18.70;99.90;;;;;;5068347;28;20239;-68
2023/08/16 03:22:43;;;;;;;6.83;5.30;;;18.60;99.90;;;;;;5068255;28;20612;-68
2023/08/16 03:25:09;;;;;;;6.67;5.40;;;18.60;99.90;;;;;;5068280;28;20266;-68
2023/08/16 03:27:35;;;;;;;9.47;6.00;;;18.60;99.90;;;;;;5068367;28;20195;-68
2023/08/16 03:30:00;;;;;;;7.67;5.70;;;18.60;99.90;;;;;;5068148;28;20622;-68
2023/08/16 03:32:26;;;;;;;7.33;6.20;;;18.50;99.90;;;;;;5068116;28;20207;-68
2023/08/16 03:34:51;;;;;;;9.60;5.00;;;18.50;99.90;;;;;;5068347;28;20546;-68
2023/08/16 03:37:17;;;;;;;8.93;5.63;;;18.50;99.90;;;;;;5068106;28;20211;-68
2023/08/16 03:39:42;;;;;;;7.53;5.13;;;18.60;99.90;;;;;;5068277;28;20180;-69
2023/08/16 03:42:08;;;;;;;9.03;6.10;;;18.50;99.90;;;;;;5068121;28;20222;-68
2023/08/16 03:44:34;;;;;;;6.50;5.10;;;18.50;99.90;;;;;;5068303;28;21006;-72
2023/08/16 03:46:59;;;;;;;11.70;5.90;;;18.50;99.90;;;;;;5050017;28;20187;-72
2023/08/16 03:49:25;;;;;;;6.73;5.53;;;18.40;99.90;;;;;;5068100;28;20201;-72
2023/08/16 03:51:51;;;;;;;5.70;5.03;;;18.40;99.90;;;;;;5068047;28;20266;-72
2023/08/16 03:54:16;;;;;;;9.43;6.70;;;18.50;99.90;;;;;;5067956;28;20594;-72
2023/08/16 03:56:42;;;;;;;7.53;5.47;;;18.60;99.90;;;;;;5049500;28;20203;-72
2023/08/16 03:59:07;;;;;;;11.50;5.87;;;18.40;99.90;;;;;;5049751;28;20650;-72
2023/08/16 04:01:33;;;;;;;9.43;7.10;;;18.10;99.90;;;;;;5067971;28;20206;-72
2023/08/16 04:03:59;;;;;;;9.07;6.60;;;17.90;99.90;;;;;;5067824;28;20182;-72
2023/08/16 04:06:24;;;;;;;10.00;6.90;;;17.90;99.90;;;;;;5049931;28;20935;-72
2023/08/16 04:08:50;;;;;;;9.80;6.93;;;18.00;99.90;;;;;;5067766;28;20396;-72
2023/08/16 04:11:16;;;;;;;12.63;7.30;;;18.10;99.90;;;;;;5067512;28;20662;-72
2023/08/16 04:13:41;;;;;;;8.23;6.27;;;18.20;99.90;;;;;;5049672;28;20214;-72
2023/08/16 04:16:07;;;;;;;9.67;6.53;;;18.20;99.90;;;;;;5067677;28;20190;-72
2023/08/16 04:18:32;;;;;;;11.33;6.17;;;18.20;99.90;;;;;;5067620;28;20795;-72
2023/08/16 04:20:58;;;;;;;8.57;6.50;;;18.20;99.90;;;;;;5068782;28;20232;-72
2023/08/16 04:23:24;;;;;;;8.20;6.63;;;18.20;99.90;;;;;;5051660;28;20199;-72
2023/08/16 04:25:50;;;;;;;9.37;6.00;;;18.20;99.90;;;;;;5069602;28;20179;-71
2023/08/16 04:28:16;;;;;;;8.23;6.53;;;18.30;99.90;;;;;;5051679;28;20183;-72
2023/08/16 04:30:41;;;;;;;9.40;6.50;;;18.30;99.90;;;;;;5069543;28;20459;-72
2023/08/16 04:33:07;;;;;;;6.90;6.20;;;18.30;99.90;;;;;;5070027;28;20749;-72
2023/08/16 04:35:32;;;;;;;9.93;6.70;;;18.30;99.90;;;;;;5069600;28;20187;-72
2023/08/16 04:37:59;;;;;;;7.70;7.00;;;18.40;99.90;;;;;;5069321;28;20677;-72
2023/08/16 04:40:25;;;;;;;8.37;7.27;;;18.40;99.90;;;;;;5069557;28;20547;-72
2023/08/16 04:42:50;;;;;;;9.27;7.40;;;18.40;99.90;;;;;;5051534;28;20257;-72
2023/08/16 04:45:16;;;;;;;8.60;7.20;;;18.50;99.90;;;;;;5069614;28;20270;-72
2023/08/16 04:47:41;;;;;;;10.90;8.60;;;18.60;99.90;;;;;;5051578;28;20301;-72
2023/08/16 04:50:07;;;;;;;11.80;7.97;;;18.60;99.90;;;;;;5069604;28;20682;-72
2023/08/16 04:52:37;;;;;;;10.47;7.00;;;18.40;99.90;;;;;;5069487;28;20215;-71
2023/08/16 04:55:04;;;;;;;15.23;7.90;;;18.20;99.90;;;;;;5070148;28;20433;-72
2023/08/16 04:57:30;;;;;;;14.10;8.17;;;18.40;99.90;;;;;;5069746;28;20869;-72
2023/08/16 04:59:55;;;;;;;11.00;7.20;;;18.20;99.90;;;;;;5069620;28;20430;-72
2023/08/16 05:02:21;;;;;;;11.90;6.87;;;18.10;99.90;;;;;;5069842;28;20214;-72
2023/08/16 05:04:46;;;;;;;9.60;5.70;;;18.30;99.90;;;;;;5069884;28;20186;-71
2023/08/16 05:07:12;;;;;;;9.47;8.00;;;18.40;99.90;;;;;;5051887;28;20645;-71
2023/08/16 05:09:37;;;;;;;12.97;8.03;;;18.40;99.90;;;;;;5051883;28;20201;-72
2023/08/16 05:12:03;;;;;;;9.40;8.03;;;18.30;99.90;;;;;;5051354;28;20682;-73
2023/08/16 05:14:30;;;;;;;10.93;8.53;;;18.30;99.90;;;;;;5051605;28;20195;-72
2023/08/16 05:16:55;;;;;;;16.60;9.13;;;18.30;99.90;;;;;;5069500;28;20483;-73
2023/08/16 05:19:21;;;;;;;10.73;7.50;;;18.30;99.90;;;;;;5069310;28;20923;-73
2023/08/16 05:21:46;;;;;;;13.63;8.83;;;18.40;99.90;;;;;;5069159;28;20207;-73
2023/08/16 05:24:12;;;;;;;13.90;8.57;;;18.40;99.90;;;;;;5069041;28;20193;-73
2023/08/16 05:26:38;;;;;;;17.93;9.53;;;18.40;99.90;;;;;;5050488;28;20566;-73
2023/08/16 05:29:03;;;;;;;12.40;8.13;;;18.40;99.90;;;;;;5068810;28;20182;-72
2023/08/16 05:31:29;;;;;;;11.57;8.80;;;18.50;99.90;;;;;;5049757;28;20701;-73
2023/08/16 05:33:54;;;;;;;13.40;8.67;;;18.50;99.90;;;;;;5068165;28;20506;-72
2023/08/16 05:36:20;;;;;;;11.80;9.60;;;18.60;99.90;;;;;;5068431;28;20680;-73
2023/08/16 05:38:46;;;;;;;14.00;11.30;;;18.70;99.90;;;;;;5068331;28;20353;-73
2023/08/16 05:41:11;;;;;;;26.63;11.93;;;18.80;99.90;;;;;;5068295;28;20201;-73
2023/08/16 05:43:37;;;;;;;17.83;12.47;;;18.90;99.90;;;;;;5068505;28;20186;-73
2023/08/16 05:46:02;;;;;;;19.60;12.23;;;19.00;99.90;;;;;;5068415;28;20311;-73
2023/08/16 05:48:28;;;;;;;16.23;11.90;;;19.20;99.90;;;;;;5033573;28;20194;-72
2023/08/16 05:50:54;;;;;;;20.83;15.50;;;19.40;99.90;;;;;;5068121;28;20232;-72
2023/08/16 05:53:19;;;;;;;27.30;15.10;;;19.60;99.90;;;;;;5049987;28;20205;-73
2023/08/16 05:55:45;;;;;;;15.73;14.03;;;19.70;99.90;;;;;;5068038;28;20564;-72
2023/08/16 05:58:11;;;;;;;18.97;14.33;;;19.90;99.90;;;;;;5068023;28;20219;-73
2023/08/16 06:00:36;;;;;;;16.07;12.67;;;19.90;99.90;;;;;;5049686;28;20190;-73
2023/08/16 06:03:02;;;;;;;16.93;12.90;;;20.10;99.90;;;;;;5049941;28;20214;-73
2023/08/16 06:05:28;;;;;;;14.80;13.17;;;20.30;99.90;;;;;;5049863;28;20182;-72
2023/08/16 06:07:54;;;;;;;16.90;12.40;;;20.20;99.90;;;;;;5049826;28;20428;-72
2023/08/16 06:10:20;;;;;;;14.83;11.77;;;20.30;99.90;;;;;;5049685;28;20666;-72
2023/08/16 06:12:45;;;;;;;15.23;11.70;;;20.40;99.90;;;;;;5067601;28;20567;-72
2023/08/16 06:15:11;;;;;;;11.20;9.90;;;20.40;99.90;;;;;;5067552;28;20461;-72
2023/08/16 06:17:41;;;;;;;13.73;11.10;;;20.30;99.90;;;;;;5049344;28;20215;-71
2023/08/16 06:20:08;;;;;;;11.03;9.63;;;20.50;99.90;;;;;;5067465;28;20186;-72
2023/08/16 06:22:37;;;;;;;14.30;9.90;;;20.70;99.90;;;;;;5067377;28;20448;-72
2023/08/16 06:25:11;;;;;;;12.97;9.37;;;20.90;99.90;;;;;;5067402;28;20427;-72
2023/08/16 06:27:37;;;;;;;10.60;8.40;;;21.10;99.90;;;;;;5049249;28;20523;-73
2023/08/16 06:30:03;;;;;;;11.20;7.87;;;21.30;99.90;;;;;;5032425;28;20901;-73
2023/08/16 06:32:28;;;;;;;10.67;8.37;;;21.40;99.90;;;;;;5048955;28;20203;-73
2023/08/16 06:34:54;;;;;;;8.23;6.40;;;21.50;99.90;;;;;;5049170;28;20436;-72
2023/08/16 06:37:21;;;;;;;10.57;6.60;;;21.80;99.90;;;;;;5067450;28;20302;-72
2023/08/16 06:39:46;;;;;;;10.60;6.40;;;22.00;99.90;;;;;;5048786;28;20190;-72
2023/08/16 06:42:13;;;;;;;10.33;6.30;;;22.20;99.90;;;;;;5067059;28;20441;-72
2023/08/16 06:44:39;;;;;;;7.37;6.57;;;22.40;99.90;;;;;;5066955;28;20186;-72
2023/08/16 06:47:05;;;;;;;8.97;6.50;;;22.50;99.90;;;;;;5049081;28;20423;-72
2023/08/16 06:49:30;;;;;;;8.43;6.87;;;22.60;99.90;;;;;;5067284;28;20183;-72
2023/08/16 06:51:56;;;;;;;9.73;6.63;;;22.80;99.90;;;;;;5066939;28;20456;-72
2023/08/16 06:54:22;;;;;;;11.43;6.50;;;22.80;99.90;;;;;;5066991;28;20183;-72
2023/08/16 06:56:49;;;;;;;7.57;6.67;;;22.80;99.90;;;;;;5067137;28;20651;-72
2023/08/16 06:59:15;;;;;;;7.30;6.30;;;22.80;99.90;;;;;;5067118;28;20420;-72
2023/08/16 07:01:41;;;;;;;9.87;7.90;;;22.80;99.90;;;;;;5067052;28;21028;-72
2023/08/16 07:04:06;;;;;;;8.70;7.00;;;22.80;99.90;;;;;;5048759;28;20522;-71
2023/08/16 07:06:32;;;;;;;11.73;6.90;;;22.80;99.90;;;;;;5066916;28;20200;-71
2023/08/16 07:09:00;;;;;;;13.47;6.33;;;22.80;99.90;;;;;;5048611;28;20185;-71
2023/08/16 07:11:26;;;;;;;10.93;6.20;;;22.80;99.90;;;;;;5066615;28;20194;-71
2023/08/16 07:13:52;;;;;;;7.30;6.20;;;22.90;99.90;;;;;;5048774;28;20926;-73
2023/08/16 07:16:18;;;;;;;15.90;6.93;;;22.90;99.90;;;;;;5067004;28;20258;-72
2023/08/16 07:18:44;;;;;;;13.30;7.67;;;22.90;99.90;;;;;;5066747;28;20475;-72
2023/08/16 07:21:10;;;;;;;7.70;6.90;;;22.80;99.90;;;;;;5066470;28;20189;-72
2023/08/16 07:23:36;;;;;;;12.73;5.90;;;22.90;99.90;;;;;;5066623;28;20191;-73
2023/08/16 07:26:03;;;;;;;8.90;6.00;;;22.90;99.90;;;;;;5066981;28;20529;-72
2023/08/16 07:28:28;;;;;;;7.83;6.80;;;23.00;99.90;;;;;;5066693;28;20189;-72
2023/08/16 07:30:55;;;;;;;10.03;6.50;;;23.10;99.90;;;;;;5066566;28;20462;-72
2023/08/16 07:33:21;;;;;;;8.10;6.60;;;23.10;99.90;;;;;;5067105;28;20213;-72
2023/08/16 07:35:50;;;;;;;6.87;6.17;;;23.20;99.90;;;;;;5048588;28;20985;-72
2023/08/16 07:38:16;;;;;;;15.97;8.10;;;23.20;99.90;;;;;;5066524;28;20471;-72
2023/08/16 07:40:48;;;;;;;8.60;6.23;;;23.30;99.90;;;;;;5048258;28;21085;-72
2023/08/16 07:43:14;;;;;;;7.40;6.20;;;23.50;99.90;;;;;;5066297;28;20456;-72
2023/08/16 07:45:40;;;;;;;8.33;5.90;;;23.60;99.90;;;;;;5048209;28;20437;-72
2023/08/16 07:48:06;;;;;;;8.67;6.87;;;23.70;99.90;;;;;;5066561;28;20428;-72
2023/08/16 07:50:31;;;;;;;6.73;5.83;;;23.80;99.90;;;;;;5066666;28;20198;-72
2023/08/16 07:52:57;;;;;;;9.83;6.43;;;24.00;99.90;;;;;;5066746;28;20286;-72
2023/08/16 07:55:29;;;;;;;13.00;7.43;;;24.10;99.90;;;;;;5067538;28;20211;-72
2023/08/16 07:57:54;;;;;;;7.40;6.33;;;24.10;99.90;;;;;;5070615;28;20249;-72
2023/08/16 08:00:20;;;;;;;6.20;5.30;;;24.20;99.90;;;;;;5052418;28;20459;-71
2023/08/16 08:02:46;;;;;;;11.80;6.67;;;24.30;99.90;;;;;;5070599;28;20214;-73
2023/08/16 08:05:11;;;;;;;10.00;6.53;;;24.40;99.90;;;;;;5052692;28;20187;-71
2023/08/16 08:07:37;;;;;;;6.13;5.53;;;24.50;99.90;;;;;;5070530;28;20197;-71
2023/08/16 08:10:02;;;;;;;6.13;5.53;;;24.60;99.90;;;;;;5070376;28;20194;-71
2023/08/16 08:12:30;;;;;;;8.77;6.27;;;24.70;99.90;;;;;;5070338;28;20567;-67
2023/08/16 08:14:57;;;;;;;10.00;6.17;;;24.70;99.90;;;;;;5070091;28;20285;-67
2023/08/16 08:17:23;;;;;;;8.33;6.23;;;24.90;99.90;;;;;;5070057;28;20468;-69
2023/08/16 08:19:48;;;;;;;9.33;5.77;;;25.00;99.90;;;;;;5070258;28;20424;-67
2023/08/16 08:22:14;;;;;;;7.13;5.90;;;25.10;99.90;;;;;;5070308;28;20226;-67
2023/08/16 08:24:40;;;;;;;10.30;6.90;;;25.20;99.90;;;;;;5070259;28;20927;-68
2023/08/16 08:27:05;;;;;;;12.60;6.53;;;25.20;99.90;;;;;;5070143;28;20186;-68
2023/08/16 08:29:31;;;;;;;9.03;5.67;;;25.30;99.90;;;;;;5070122;28;20199;-68
2023/08/16 08:31:56;;;;;;;6.67;5.23;;;25.50;99.90;;;;;;5052194;28;20205;-69
2023/08/16 08:34:24;;;;;;;10.83;5.80;;;25.70;99.90;;;;;;5051606;28;20200;-68
2023/08/16 08:36:49;;;;;;;10.47;5.87;;;25.90;99.90;;;;;;5069674;28;20187;-68
2023/08/16 08:39:19;;;;;;;9.93;6.90;;;25.90;99.90;;;;;;5069932;28;20481;-68
2023/08/16 08:41:47;;;;;;;13.00;6.70;;;25.90;99.90;;;;;;5069833;28;20202;-68
2023/08/16 08:44:14;;;;;;;9.70;5.97;;;25.90;99.90;;;;;;5069743;28;20452;-67
2023/08/16 08:46:41;;;;;;;9.67;6.10;;;26.00;99.90;;;;;;5051987;28;20853;-67
2023/08/16 08:49:07;;;;;;;9.80;6.27;;;26.20;99.90;;;;;;5069704;28;20967;-68
2023/08/16 08:51:35;;;;;;;7.03;5.33;;;26.30;99.90;;;;;;5069589;28;20433;-67
2023/08/16 08:54:00;;;;;;;7.70;5.70;;;26.30;99.90;;;;;;5051761;28;20428;-67
2023/08/16 08:56:28;;;;;;;11.87;6.20;;;26.40;99.90;;;;;;5051523;28;21240;-67
2023/08/16 08:58:56;;;;;;;6.67;5.47;;;26.40;99.90;;;;;;5069132;28;20689;-67
2023/08/16 09:01:24;;;;;;;26.17;6.53;;;26.60;99.90;;;;;;5069373;28;20414;-67
2023/08/16 09:03:52;;;;;;;8.93;6.40;;;26.70;99.90;;;;;;5069330;28;20421;-67
2023/08/16 09:06:18;;;;;;;10.00;5.97;;;26.60;99.90;;;;;;5069606;28;20409;-67
2023/08/16 09:08:45;;;;;;;10.47;6.20;;;26.40;99.90;;;;;;5069529;28;20483;-67
2023/08/16 09:11:13;;;;;;;10.00;6.30;;;26.10;99.90;;;;;;5069413;28;20417;-67
2023/08/16 09:13:39;;;;;;;8.43;6.03;;;25.90;99.90;;;;;;5069846;28;20421;-67
2023/08/16 09:16:04;;;;;;;5.77;5.37;;;26.00;99.90;;;;;;5069818;28;20413;-67
2023/08/16 09:18:30;;;;;;;5.63;5.13;;;26.40;99.90;;;;;;5069769;28;20689;-67
2023/08/16 09:20:59;;;;;;;10.50;6.23;;;26.90;99.90;;;;;;5070013;28;20193;-67
2023/08/16 09:23:25;;;;;;;8.43;5.73;;;27.30;99.90;;;;;;5069638;28;20440;-67
2023/08/16 09:25:51;;;;;;;7.53;5.33;;;27.70;99.90;;;;;;5069776;28;20422;-67
2023/08/16 09:28:17;;;;;;;9.40;5.73;;;28.00;99.90;;;;;;5069757;28;20784;-68
2023/08/16 09:30:43;;;;;;;9.43;6.43;;;28.30;99.90;;;;;;5069594;28;20699;-67
2023/08/16 09:33:12;;;;;;;12.87;6.07;;;28.10;99.90;;;;;;5068777;28;20195;-71
2023/08/16 09:35:43;;;;;;;9.63;6.03;;;28.40;99.90;;;;;;5068653;28;20432;-68
2023/08/16 09:38:09;;;;;;;7.53;6.77;;;28.70;99.90;;;;;;5068832;28;20784;-69
2023/08/16 09:40:35;;;;;;;7.07;6.37;;;29.10;99.90;;;;;;5068858;28;20870;-68
2023/08/16 09:43:01;;;;;;;7.57;5.73;;;29.20;99.90;;;;;;5068746;28;20571;-68
2023/08/16 09:45:32;;;;;;;8.87;5.67;;;29.50;99.90;;;;;;5068533;28;20445;-68
2023/08/16 09:47:59;;;;;;;10.27;6.07;;;29.80;99.90;;;;;;5068222;28;20422;-68
2023/08/16 09:50:26;;;;;;;5.93;5.33;;;30.10;99.90;;;;;;5068217;28;20417;-67
2023/08/16 09:52:52;;;;;;;9.07;5.53;;;30.30;99.90;;;;;;5068249;28;20459;-67
2023/08/16 09:55:29;;;;;;;6.13;5.53;;;30.50;99.90;;;;;;5068086;28;20425;-67
2023/08/16 09:57:57;;;;;;;7.90;5.87;;;30.80;99.90;;;;;;5068167;28;20214;-67
2023/08/16 10:00:23;;;;;;;10.73;5.80;;;31.00;99.90;;;;;;5068425;28;20417;-68
2023/08/16 10:02:50;;;;;;;6.80;5.40;;;31.10;99.90;;;;;;5067930;28;20555;-67
2023/08/16 10:05:16;;;;;;;9.00;5.30;;;31.40;99.90;;;;;;5067916;28;20410;-68
2023/08/16 10:07:42;;;;;;;9.50;6.33;;;31.60;99.90;;;;;;5068161;28;20837;-68
2023/08/16 10:10:13;;;;;;;6.60;5.20;;;31.30;99.90;;;;;;5067837;28;20942;-68
2023/08/16 10:12:39;;;;;;;6.60;5.47;;;30.90;99.90;;;;;;5033842;28;20814;-68
2023/08/16 10:15:05;;;;;;;7.17;5.70;;;30.60;99.90;;;;;;5067656;28;20428;-68
2023/08/16 10:17:41;;;;;;;9.13;5.30;;;30.40;99.90;;;;;;5067343;28;20983;-69
2023/08/16 10:20:13;;;;;;;12.73;5.70;;;30.40;99.90;;;;;;5067534;28;20405;-68
2023/08/16 10:22:42;;;;;;;6.47;5.87;;;30.30;99.90;;;;;;5067606;28;20904;-68
2023/08/16 10:25:12;;;;;;;10.40;5.20;;;30.30;99.90;;;;;;5067622;28;20924;-68
2023/08/16 10:27:41;;;;;;;6.13;5.37;;;30.20;99.90;;;;;;5067571;28;20498;-68
2023/08/16 10:30:10;;;;;;;5.20;4.73;;;30.20;99.90;;;;;;5067673;28;20441;-68
2023/08/16 10:32:40;;;;;;;8.00;5.37;;;30.20;99.90;;;;;;5067572;28;20444;-68
2023/08/16 10:35:07;;;;;;;6.00;5.07;;;30.20;99.90;;;;;;5067599;28;20947;-69
2023/08/16 10:37:33;;;;;;;5.30;4.90;;;30.20;99.90;;;;;;5067645;28;20472;-69
2023/08/16 10:39:59;;;;;;;6.60;5.30;;;30.30;99.90;;;;;;5067656;28;20418;-69
2023/08/16 10:42:26;;;;;;;6.23;4.90;;;30.30;99.90;;;;;;5049808;28;20214;-69
2023/08/16 10:44:52;;;;;;;6.00;5.13;;;30.50;99.90;;;;;;5067812;28;20679;-68
2023/08/16 10:47:31;;;;;;;5.80;4.70;;;30.50;99.90;;;;;;5067785;28;20510;-68
2023/08/16 10:49:59;;;;;;;8.60;4.47;;;30.60;99.90;;;;;;5067678;28;20187;-68
2023/08/16 10:52:29;;;;;;;8.30;4.67;;;30.70;99.90;;;;;;5067414;28;20440;-68
2023/08/16 10:54:54;;;;;;;7.13;5.00;;;30.80;99.90;;;;;;5067423;28;20413;-69
2023/08/16 10:57:25;;;;;;;4.80;4.13;;;30.80;99.90;;;;;;5067161;28;20461;-68
2023/08/16 11:00:02;;;;;;;11.83;4.57;;;31.00;99.90;;;;;;5067398;28;20187;-68
2023/08/16 11:02:30;;;;;;;6.50;4.40;;;31.10;99.90;;;;;;5048868;28;20762;-68
2023/08/16 11:04:56;;;;;;;7.90;4.60;;;31.20;99.90;;;;;;5067493;28;21309;-68
2023/08/16 11:07:22;;;;;;;5.23;3.77;;;31.10;99.90;;;;;;5067143;28;20414;-69
2023/08/16 11:09:48;;;;;;;6.13;4.10;;;31.20;99.90;;;;;;5067152;28;20347;-68
2023/08/16 11:12:15;;;;;;;10.80;4.40;;;31.30;99.90;;;;;;5067143;28;20557;-69
2023/08/16 11:14:43;;;;;;;6.80;4.13;;;31.30;99.90;;;;;;5048718;28;20186;-68
2023/08/16 11:17:09;;;;;;;6.80;4.57;;;31.40;99.90;;;;;;5067369;28;20496;-68
2023/08/16 11:19:34;;;;;;;6.10;3.77;;;31.50;99.90;;;;;;5067462;28;20457;-68
2023/08/16 11:22:05;;;;;;;4.97;3.27;;;31.50;99.90;;;;;;5067052;28;20203;-68
2023/08/16 11:24:31;;;;;;;3.97;3.30;;;31.60;99.90;;;;;;5067284;28;20183;-68
2023/08/16 11:26:57;;;;;;;6.90;3.40;;;31.70;99.90;;;;;;5067127;28;20410;-68
2023/08/16 11:29:22;;;;;;;4.27;3.37;;;31.70;99.90;;;;;;5067115;28;20420;-68
2023/08/16 11:31:50;;;;;;;4.37;3.27;;;31.70;99.90;;;;;;5052550;28;20290;-69
2023/08/16 11:34:15;;;;;;;3.10;2.80;;;31.80;99.90;;;;;;5071109;28;20175;-68
2023/08/16 11:36:41;;;;;;;3.10;2.80;;;31.90;99.90;;;;;;5070979;28;20490;-68
2023/08/16 11:39:10;;;;;;;3.27;2.97;;;31.90;99.90;;;;;;5071063;28;20519;-68
2023/08/16 11:41:36;;;;;;;4.00;3.30;;;31.90;99.90;;;;;;5053392;28;20202;-68
2023/08/16 11:44:03;;;;;;;4.93;3.03;;;31.80;99.90;;;;;;5053257;28;20831;-67
2023/08/16 11:46:42;;;;;;;3.20;2.77;;;31.90;99.90;;;;;;5070779;28;20474;-68
2023/08/16 11:49:08;;;;;;;3.90;3.10;;;32.10;99.90;;;;;;5070668;28;20446;-67
2023/08/16 11:51:38;;;;;;;6.03;2.97;;;32.20;99.90;;;;;;5070715;28;20857;-68
2023/08/16 11:54:04;;;;;;;7.63;3.10;;;32.20;99.90;;;;;;5070460;28;20228;-68
2023/08/16 11:56:30;;;;;;;5.20;3.07;;;32.20;99.90;;;;;;5070423;28;20432;-68
2023/08/16 11:58:56;;;;;;;10.00;3.10;;;32.10;99.90;;;;;;5070595;28;20523;-69
2023/08/16 12:01:22;;;;;;;3.70;2.70;;;32.10;99.90;;;;;;5070916;28;20292;-68
2023/08/16 12:03:48;;;;;;;6.53;3.10;;;32.20;99.90;;;;;;5070723;28;20191;-68
2023/08/16 12:06:16;;;;;;;5.03;3.10;;;32.20;99.90;;;;;;5071292;28;20953;-69
2023/08/16 12:08:53;;;;;;;4.00;3.50;;;32.20;99.90;;;;;;5070930;28;21084;-69
2023/08/16 12:11:35;;;;;;;5.10;3.33;;;32.20;99.90;;;;;;5070873;28;20405;-69
2023/08/16 12:14:02;;;;;;;6.17;3.53;;;32.10;99.90;;;;;;5070635;28;20947;-69
2023/08/16 12:16:28;;;;;;;5.20;3.20;;;31.70;99.90;;;;;;5070673;28;20417;-68
2023/08/16 12:18:54;;;;;;;4.57;3.30;;;31.50;99.90;;;;;;5070416;28;21055;-68
2023/08/16 12:21:20;;;;;;;4.60;3.03;;;31.60;99.90;;;;;;5070389;28;20482;-69
2023/08/16 12:23:49;;;;;;;9.40;3.47;;;31.70;99.90;;;;;;5070708;28;20851;-68
2023/08/16 12:26:15;;;;;;;4.80;3.30;;;31.80;99.90;;;;;;5070262;28;20241;-68
2023/08/16 12:28:41;;;;;;;4.27;3.00;;;32.00;99.90;;;;;;5052436;28;20516;-69
2023/08/16 12:31:07;;;;;;;3.97;2.83;;;32.10;99.90;;;;;;5070556;28;20441;-68
2023/08/16 12:33:32;;;;;;;2.90;2.70;;;32.10;99.90;;;;;;5070725;28;20444;-68
2023/08/16 12:35:58;;;;;;;3.40;3.10;;;32.20;99.90;;;;;;5070833;28;20662;-68
2023/08/16 12:38:24;;;;;;;6.90;3.07;;;32.20;99.90;;;;;;5070634;28;20643;-68
2023/08/16 12:40:50;;;;;;;3.70;3.23;;;32.30;99.90;;;;;;5070162;28;20179;-68